createdAt,value
2023-02-12T00:01:24.281Z,36.88
2023-02-12T00:03:52.045Z,37.50
2023-02-12T00:06:19.866Z,31.15
2023-02-12T00:08:51.872Z,32.45
2023-02-12T00:11:24.840Z,38.13
2023-02-12T00:13:52.679Z,33.28
2023-02-12T00:16:24.041Z,37.90
2023-02-12T00:18:56.279Z,33.75
2023-02-12T00:21:25.114Z,33.63
2023-02-12T00:23:52.867Z,30.88
2023-02-12T00:26:22.684Z,36.72
2023-02-12T00:28:51.668Z,34.10
2023-02-12T00:31:28.466Z,35.40
2023-02-12T00:33:56.398Z,34.58
2023-02-12T00:36:26.987Z,37.28
2023-02-12T00:38:56.315Z,35.80
2023-02-12T00:41:24.805Z,33.97
2023-02-12T00:43:52.473Z,30.35
2023-02-12T00:46:20.981Z,35.20
2023-02-12T00:48:48.758Z,37.92
2023-02-12T00:51:16.622Z,34.95
2023-02-12T00:53:44.476Z,35.58
2023-02-12T00:56:12.249Z,36.85
2023-02-12T00:58:39.918Z,35.85
2023-02-12T01:01:07.877Z,38.47
2023-02-12T01:03:35.709Z,36.15
2023-02-12T01:06:03.530Z,33.92
2023-02-12T01:08:31.464Z,37.03
2023-02-12T01:11:02.466Z,35.13
2023-02-12T01:13:32.300Z,36.08
2023-02-12T01:16:14.810Z,37.47
2023-02-12T01:18:42.821Z,37.78
2023-02-12T01:21:12.045Z,34.70
2023-02-12T01:23:40.140Z,39.10
2023-02-12T01:26:08.656Z,38.25
2023-02-12T01:28:36.371Z,34.60
2023-02-12T01:31:08.592Z,36.85
2023-02-12T01:33:36.412Z,37.47
2023-02-12T01:36:04.296Z,40.55
2023-02-12T01:38:32.582Z,36.67
2023-02-12T01:41:13.031Z,40.05
2023-02-12T01:43:41.400Z,38.45
2023-02-12T01:46:10.808Z,36.72
2023-02-12T01:48:41.569Z,35.88
2023-02-12T01:51:12.981Z,34.08
2023-02-12T01:53:48.187Z,34.75
2023-02-12T01:56:17.023Z,34.75
2023-02-12T01:58:47.278Z,38.38
2023-02-12T02:01:20.948Z,36.00
2023-02-12T02:03:55.772Z,39.35
2023-02-12T02:06:30.977Z,33.80
2023-02-12T02:08:59.127Z,35.97
2023-02-12T02:11:45.096Z,38.70
2023-02-12T02:14:31.613Z,34.75
2023-02-12T02:17:02.436Z,36.60
2023-02-12T02:19:58.012Z,39.50
2023-02-12T02:22:40.214Z,36.13
2023-02-12T02:25:45.234Z,37.88
2023-02-12T02:28:18.984Z,37.50
2023-02-12T02:31:21.670Z,42.80
2023-02-12T02:34:30.649Z,37.05
2023-02-12T02:37:05.684Z,35.63
2023-02-12T02:39:36.133Z,39.47
2023-02-12T02:42:18.170Z,39.47
2023-02-12T02:45:08.287Z,38.90
2023-02-12T02:47:44.363Z,37.00
2023-02-12T02:50:22.813Z,35.63
2023-02-12T02:52:58.829Z,38.97
2023-02-12T02:55:32.155Z,39.17
2023-02-12T02:58:10.232Z,35.75
2023-02-12T03:00:43.203Z,40.53
2023-02-12T03:03:19.562Z,40.47
2023-02-12T03:05:51.977Z,38.97
2023-02-12T03:08:26.308Z,43.65
2023-02-12T03:11:08.286Z,41.08
2023-02-12T03:13:47.562Z,38.88
2023-02-12T03:16:31.153Z,45.00
2023-02-12T03:19:09.896Z,39.75
2023-02-12T03:21:49.799Z,39.60
2023-02-12T03:24:27.614Z,43.95
2023-02-12T03:27:10.368Z,40.53
2023-02-12T03:29:38.372Z,43.92
2023-02-12T03:32:30.840Z,48.00
2023-02-12T03:35:36.708Z,40.70
2023-02-12T03:38:11.020Z,39.60
2023-02-12T03:40:43.232Z,44.78
2023-02-12T03:43:32.534Z,37.50
2023-02-12T03:46:18.581Z,45.45
2023-02-12T03:48:49.151Z,46.88
2023-02-12T03:51:19.832Z,42.75
2023-02-12T03:53:48.405Z,42.15
2023-02-12T03:56:40.546Z,39.72
2023-02-12T03:59:08.650Z,37.47
2023-02-12T04:01:37.532Z,44.65
2023-02-12T04:04:08.010Z,41.75
2023-02-12T04:06:36.227Z,39.95
2023-02-12T04:09:08.410Z,41.28
2023-02-12T04:11:55.080Z,47.78
2023-02-12T04:15:00.455Z,44.53
2023-02-12T04:17:48.722Z,49.80
2023-02-12T04:20:42.586Z,39.50
2023-02-12T04:23:24.303Z,44.13
2023-02-12T04:26:04.036Z,48.60
2023-02-12T04:29:18.488Z,42.03
2023-02-12T04:31:58.243Z,43.42
2023-02-12T04:34:57.955Z,44.38
2023-02-12T04:37:32.710Z,50.15
2023-02-12T04:40:01.689Z,41.67
2023-02-12T04:42:29.509Z,40.78
2023-02-12T04:44:57.122Z,36.17
2023-02-12T04:47:24.823Z,41.83
2023-02-12T04:49:52.442Z,47.50
2023-02-12T04:52:20.263Z,34.45
2023-02-12T04:54:47.909Z,40.45
2023-02-12T04:57:15.518Z,44.20
2023-02-12T04:59:43.213Z,42.75
2023-02-12T05:02:10.873Z,36.97
2023-02-12T05:04:38.581Z,39.10
2023-02-12T05:07:06.309Z,42.25
2023-02-12T05:09:33.967Z,45.88
2023-02-12T05:12:01.583Z,40.28
2023-02-12T05:14:29.310Z,44.50
2023-02-12T05:16:57.041Z,42.17
2023-02-12T05:19:24.684Z,44.65
2023-02-12T05:21:52.728Z,43.55
2023-02-12T05:24:20.364Z,38.78
2023-02-12T05:26:51.059Z,39.40
2023-02-12T05:29:19.531Z,43.13
2023-02-12T05:31:47.455Z,45.42
2023-02-12T05:34:15.630Z,43.17
2023-02-12T05:36:43.503Z,40.58
2023-02-12T05:39:11.704Z,43.22
2023-02-12T05:41:39.407Z,44.35
2023-02-12T05:44:08.081Z,38.90
2023-02-12T05:46:35.821Z,38.80
2023-02-12T05:49:03.758Z,38.28
2023-02-12T05:51:33.316Z,42.40
2023-02-12T05:54:04.878Z,43.90
2023-02-12T05:56:35.172Z,44.75
2023-02-12T05:59:08.473Z,39.15
2023-02-12T06:01:41.560Z,46.88
2023-02-12T06:04:16.087Z,42.00
2023-02-12T06:06:44.207Z,42.38
2023-02-12T06:09:13.321Z,38.80
2023-02-12T06:11:41.648Z,45.17
2023-02-12T06:14:12.187Z,40.42
2023-02-12T06:16:40.056Z,43.45
2023-02-12T06:19:08.099Z,46.42
2023-02-12T06:21:35.881Z,37.85
2023-02-12T06:24:03.599Z,42.92
2023-02-12T06:26:31.733Z,45.45
2023-02-12T06:28:59.545Z,38.35
2023-02-12T06:31:32.852Z,41.85
2023-02-12T06:34:04.144Z,52.85
2023-02-12T06:36:31.838Z,51.13
2023-02-12T06:39:01.735Z,48.50
2023-02-12T06:41:29.724Z,36.20
2023-02-12T06:43:57.626Z,47.35
2023-02-12T06:46:25.852Z,38.58
2023-02-12T06:48:58.815Z,48.13
2023-02-12T06:51:27.848Z,44.72
2023-02-12T06:53:56.895Z,47.92
2023-02-12T06:56:26.032Z,45.38
2023-02-12T06:58:59.007Z,46.28
2023-02-12T07:01:29.462Z,43.92
2023-02-12T07:04:03.542Z,51.35
2023-02-12T07:06:37.202Z,45.90
2023-02-12T07:09:06.236Z,41.95
2023-02-12T07:11:38.146Z,41.63
2023-02-12T07:14:07.381Z,46.50
2023-02-12T07:16:35.171Z,45.38
2023-02-12T07:19:02.919Z,45.80
2023-02-12T07:21:30.702Z,46.22
2023-02-12T07:23:58.639Z,44.00
2023-02-12T07:26:26.352Z,39.58
2023-02-12T07:28:54.006Z,44.45
2023-02-12T07:31:24.281Z,45.97
2023-02-12T07:33:57.150Z,44.47
2023-02-12T07:36:26.596Z,39.65
2023-02-12T07:38:56.062Z,41.53
2023-02-12T07:41:26.209Z,42.67
2023-02-12T07:44:02.652Z,43.28
2023-02-12T07:46:34.219Z,44.13
2023-02-12T07:49:05.571Z,40.72
2023-02-12T07:51:34.548Z,45.67
2023-02-12T07:54:03.678Z,45.15
2023-02-12T07:56:36.216Z,44.13
2023-02-12T07:59:06.969Z,41.85
2023-02-12T08:01:35.899Z,40.58
2023-02-12T08:04:07.374Z,50.38
2023-02-12T08:06:38.894Z,46.72
2023-02-12T08:09:10.949Z,46.10
2023-02-12T08:11:39.758Z,39.92
2023-02-12T08:14:08.048Z,42.17
2023-02-12T08:16:40.616Z,42.97
2023-02-12T08:19:18.699Z,38.97
2023-02-12T08:21:48.450Z,43.13
2023-02-12T08:24:16.165Z,40.60
2023-02-12T08:26:43.928Z,40.80
2023-02-12T08:29:15.782Z,39.45
2023-02-12T08:31:49.470Z,44.28
2023-02-12T08:34:23.910Z,47.05
2023-02-12T08:36:55.130Z,48.65
2023-02-12T08:39:24.185Z,49.55
2023-02-12T08:41:53.111Z,51.53
2023-02-12T08:44:20.901Z,43.08
2023-02-12T08:46:51.433Z,38.95
2023-02-12T08:49:29.125Z,42.72
2023-02-12T08:52:00.439Z,47.75
2023-02-12T08:54:30.604Z,51.35
2023-02-12T08:57:00.970Z,44.97
2023-02-12T08:59:29.410Z,42.97
2023-02-12T09:01:57.361Z,46.13
2023-02-12T09:04:27.401Z,50.12
2023-02-12T09:06:55.225Z,43.85
2023-02-12T09:09:23.383Z,42.30
2023-02-12T09:11:51.375Z,39.92
2023-02-12T09:14:25.268Z,42.20
2023-02-12T09:16:54.206Z,37.22
2023-02-12T09:19:22.729Z,36.30
2023-02-12T09:21:57.314Z,31.98
2023-02-12T09:24:28.486Z,32.25
2023-02-12T09:26:56.434Z,31.30
2023-02-12T09:29:24.069Z,29.23
2023-02-12T09:31:51.873Z,30.95
2023-02-12T09:34:19.714Z,30.80
2023-02-12T09:36:47.392Z,31.15
2023-02-12T09:39:15.097Z,28.85
2023-02-12T09:42:01.387Z,30.90
2023-02-12T09:44:54.092Z,28.52
2023-02-12T09:47:45.568Z,29.60
2023-02-12T09:50:39.180Z,29.58
2023-02-12T09:53:07.327Z,28.02
2023-02-12T09:55:36.212Z,25.02
2023-02-12T09:58:12.312Z,27.35
2023-02-12T10:00:40.255Z,27.55
2023-02-12T10:03:16.222Z,26.02
2023-02-12T10:05:52.604Z,28.38
2023-02-12T10:08:53.156Z,22.08
2023-02-12T10:11:20.876Z,24.23
2023-02-12T10:13:55.029Z,26.37
2023-02-12T10:16:28.831Z,25.80
2023-02-12T10:19:20.605Z,25.15
2023-02-12T10:22:02.394Z,21.75
2023-02-12T10:24:54.317Z,25.10
2023-02-12T10:27:39.487Z,24.58
2023-02-12T10:30:27.756Z,28.25
2023-02-12T10:33:02.841Z,26.40
2023-02-12T10:35:31.863Z,26.17
2023-02-12T10:38:07.308Z,24.05
2023-02-12T10:40:38.730Z,24.37
2023-02-12T10:43:06.971Z,25.25
2023-02-12T10:45:40.944Z,23.42
2023-02-12T10:48:08.513Z,24.25
2023-02-12T10:51:03.957Z,29.77
2023-02-12T10:53:37.264Z,25.90
2023-02-12T10:56:14.107Z,28.42
2023-02-12T10:58:44.185Z,23.50
2023-02-12T11:01:39.246Z,25.27
2023-02-12T11:04:28.123Z,23.75
2023-02-12T11:07:09.391Z,25.30
2023-02-12T11:09:48.403Z,24.45
2023-02-12T11:12:49.148Z,24.12
2023-02-12T11:15:24.846Z,23.00
2023-02-12T11:18:23.475Z,26.50
2023-02-12T11:21:04.183Z,23.98
2023-02-12T11:23:44.896Z,22.90
2023-02-12T11:26:21.503Z,23.38
2023-02-12T11:28:59.664Z,23.27
2023-02-12T11:31:30.552Z,24.37
2023-02-12T11:34:17.528Z,23.20
2023-02-12T11:36:54.352Z,22.48
2023-02-12T11:39:31.369Z,22.77
2023-02-12T11:42:15.890Z,25.73
2023-02-12T11:44:52.045Z,25.20
2023-02-12T11:47:23.427Z,26.62
2023-02-12T11:49:57.333Z,26.50
2023-02-12T11:52:31.102Z,25.90
2023-02-12T11:55:04.027Z,25.80
2023-02-12T11:57:48.335Z,27.17
2023-02-12T12:00:35.518Z,31.08
2023-02-12T12:03:14.627Z,29.40
2023-02-12T12:06:07.834Z,24.30
2023-02-12T12:08:52.656Z,24.12
2023-02-12T12:12:01.175Z,25.08
2023-02-12T12:15:07.971Z,26.75
2023-02-12T12:18:05.687Z,22.00
2023-02-12T12:20:40.268Z,22.55
2023-02-12T12:23:17.029Z,27.25
2023-02-12T12:25:56.229Z,26.23
2023-02-12T12:28:31.654Z,23.35
2023-02-12T12:31:21.301Z,25.95
2023-02-12T12:33:52.849Z,21.90
2023-02-12T12:37:07.838Z,23.67
2023-02-12T12:40:00.134Z,24.58
2023-02-12T12:42:33.710Z,23.05
2023-02-12T12:45:13.523Z,21.62
2023-02-12T12:48:02.290Z,21.75
2023-02-12T12:50:50.498Z,24.40
2023-02-12T12:53:18.275Z,21.15
2023-02-12T12:55:55.259Z,21.70
2023-02-12T12:58:40.922Z,19.40
2023-02-12T13:01:14.597Z,22.20
2023-02-12T13:04:00.837Z,17.12
2023-02-12T13:06:39.048Z,19.20
2023-02-12T13:09:34.973Z,18.45
2023-02-12T13:12:20.730Z,16.30
2023-02-12T13:14:56.807Z,16.40
2023-02-12T13:17:26.599Z,15.18
2023-02-12T13:19:59.861Z,17.42
2023-02-12T13:22:44.462Z,14.90
2023-02-12T13:25:46.111Z,13.68
2023-02-12T13:28:25.195Z,12.68
2023-02-12T13:30:56.076Z,13.98
2023-02-12T13:33:28.497Z,11.50
2023-02-12T13:36:01.859Z,12.98
2023-02-12T13:38:58.391Z,11.02
2023-02-12T13:41:26.756Z,14.23
2023-02-12T13:44:16.390Z,11.27
2023-02-12T13:47:16.113Z,12.37
2023-02-12T13:49:52.104Z,9.75
2023-02-12T13:52:40.875Z,11.30
2023-02-12T13:55:31.968Z,9.73
2023-02-12T13:58:38.513Z,10.20
2023-02-12T14:01:09.057Z,12.02
2023-02-12T14:03:38.938Z,9.18
2023-02-12T14:06:21.549Z,10.43
2023-02-12T14:09:08.294Z,10.32
2023-02-12T14:11:49.570Z,9.40
2023-02-12T14:14:31.051Z,9.20
2023-02-12T14:16:58.875Z,10.85
2023-02-12T14:19:40.076Z,9.05
2023-02-12T14:22:28.014Z,8.20
2023-02-12T14:24:58.109Z,8.85
2023-02-12T14:27:55.719Z,9.18
2023-02-12T14:30:29.104Z,7.20
2023-02-12T14:33:11.340Z,7.00
2023-02-12T14:35:43.010Z,6.07
2023-02-12T14:38:11.322Z,7.60
2023-02-12T14:40:41.794Z,7.35
2023-02-12T14:43:27.690Z,6.37
2023-02-12T14:46:00.130Z,7.32
2023-02-12T14:48:43.372Z,6.85
2023-02-12T14:51:21.706Z,6.35
2023-02-12T14:53:51.759Z,7.28
2023-02-12T14:56:24.396Z,8.35
2023-02-12T14:58:55.366Z,6.97
2023-02-12T15:01:35.013Z,6.72
2023-02-12T15:04:24.765Z,6.37
2023-02-12T15:06:58.996Z,5.53
2023-02-12T15:09:33.144Z,5.72
2023-02-12T15:12:12.111Z,5.00
2023-02-12T15:14:47.127Z,7.32
2023-02-12T15:17:26.438Z,5.97
2023-02-12T15:20:22.382Z,5.97
2023-02-12T15:22:50.172Z,5.22
2023-02-12T15:25:31.207Z,6.95
2023-02-12T15:28:02.931Z,6.32
2023-02-12T15:30:35.023Z,5.37
2023-02-12T15:33:06.694Z,5.43
2023-02-12T15:35:38.166Z,5.85
2023-02-12T15:38:08.798Z,5.95
2023-02-12T15:40:36.583Z,5.47
2023-02-12T15:43:05.782Z,6.05
2023-02-12T15:45:37.939Z,5.20
2023-02-12T15:48:16.851Z,5.15
2023-02-12T15:51:06.202Z,7.12
2023-02-12T15:53:34.531Z,5.90
2023-02-12T15:56:03.865Z,6.93
2023-02-12T15:58:45.395Z,7.72
2023-02-12T16:01:40.058Z,6.32
2023-02-12T16:04:09.405Z,6.62
2023-02-12T16:06:38.107Z,7.70
2023-02-12T16:09:08.734Z,7.03
2023-02-12T16:11:37.976Z,5.10
2023-02-12T16:14:20.160Z,7.00
2023-02-12T16:16:50.539Z,7.60
2023-02-12T16:19:22.429Z,7.55
2023-02-12T16:22:15.485Z,9.15
2023-02-12T16:24:53.521Z,7.22
2023-02-12T16:27:24.290Z,7.97
2023-02-12T16:29:58.088Z,9.60
2023-02-12T16:32:41.744Z,8.82
2023-02-12T16:35:12.392Z,6.70
2023-02-12T16:37:40.098Z,9.07
2023-02-12T16:40:13.613Z,7.40
2023-02-12T16:42:49.982Z,6.07
2023-02-12T16:45:29.363Z,7.82
2023-02-12T16:48:05.189Z,8.20
2023-02-12T16:50:35.241Z,9.90
2023-02-12T16:53:24.591Z,8.15
2023-02-12T16:55:52.362Z,7.40
2023-02-12T16:58:20.133Z,7.68
2023-02-12T17:00:48.814Z,9.43
2023-02-12T17:03:18.197Z,8.55
2023-02-12T17:05:46.488Z,8.40
2023-02-12T17:08:16.450Z,8.75
2023-02-12T17:10:45.925Z,8.10
2023-02-12T17:13:13.566Z,8.77
2023-02-12T17:16:02.693Z,8.88
2023-02-12T17:18:33.816Z,8.35
2023-02-12T17:21:05.347Z,8.48
2023-02-12T17:23:33.575Z,10.73
2023-02-12T17:26:01.640Z,12.30
2023-02-12T17:28:29.497Z,9.27
2023-02-12T17:30:58.798Z,7.15
2023-02-12T17:33:26.948Z,24.20
2023-02-12T17:35:54.850Z,15.50
2023-02-12T17:38:23.506Z,11.73
2023-02-12T17:40:52.606Z,9.82
2023-02-12T17:43:20.636Z,15.80
2023-02-12T17:45:48.942Z,9.95
2023-02-12T17:48:17.881Z,11.93
2023-02-12T17:50:45.625Z,9.60
2023-02-12T17:53:14.144Z,10.18
2023-02-12T17:55:42.648Z,10.95
2023-02-12T17:58:10.404Z,9.98
2023-02-12T18:00:38.219Z,10.15
2023-02-12T18:03:05.976Z,10.07
2023-02-12T18:05:33.769Z,9.38
2023-02-12T18:08:04.604Z,12.50
2023-02-12T18:10:32.271Z,11.93
2023-02-12T18:13:00.019Z,12.18
2023-02-12T18:15:27.815Z,11.90
2023-02-12T18:17:55.705Z,10.50
2023-02-12T18:20:23.432Z,9.43
2023-02-12T18:22:51.312Z,10.15
2023-02-12T18:25:19.075Z,10.13
2023-02-12T18:27:46.785Z,10.77
2023-02-12T18:30:15.381Z,16.48
2023-02-12T18:32:44.451Z,12.68
2023-02-12T18:35:12.254Z,11.75
2023-02-12T18:37:42.867Z,11.75
2023-02-12T18:40:11.266Z,13.95
2023-02-12T18:42:39.070Z,13.95
2023-02-12T18:45:08.451Z,12.93
2023-02-12T18:47:36.220Z,10.98
2023-02-12T18:50:03.972Z,14.60
2023-02-12T18:52:33.203Z,11.10
2023-02-12T18:55:00.904Z,12.43
2023-02-12T18:57:29.085Z,12.43
2023-02-12T18:59:56.739Z,11.93
2023-02-12T19:02:24.754Z,12.07
2023-02-12T19:04:52.544Z,11.60
2023-02-12T19:07:20.386Z,12.23
2023-02-12T19:09:48.147Z,13.55
2023-02-12T19:12:15.992Z,12.93
2023-02-12T19:14:43.696Z,12.82
2023-02-12T19:17:11.491Z,11.27
2023-02-12T19:19:39.314Z,12.20
2023-02-12T19:22:07.050Z,14.02
2023-02-12T19:24:45.808Z,12.13
2023-02-12T19:27:14.393Z,13.50
2023-02-12T19:29:42.601Z,13.15
2023-02-12T19:32:10.564Z,12.73
2023-02-12T19:34:38.581Z,13.25
2023-02-12T19:37:06.299Z,12.65
2023-02-12T19:39:34.209Z,13.77
2023-02-12T19:42:02.117Z,13.73
2023-02-12T19:44:29.886Z,13.98
2023-02-12T19:46:58.736Z,14.93
2023-02-12T19:49:29.356Z,14.45
2023-02-12T19:51:57.144Z,14.40
2023-02-12T19:54:25.883Z,13.85
2023-02-12T19:56:55.038Z,14.55
2023-02-12T19:59:25.042Z,14.38
2023-02-12T20:01:53.212Z,16.17
2023-02-12T20:04:24.052Z,13.90
2023-02-12T20:06:54.737Z,14.98
2023-02-12T20:09:23.704Z,13.62
2023-02-12T20:11:52.041Z,13.25
2023-02-12T20:14:21.877Z,16.80
2023-02-12T20:16:51.056Z,14.95
2023-02-12T20:19:30.646Z,15.00
2023-02-12T20:22:00.150Z,19.12
2023-02-12T20:24:30.884Z,18.83
2023-02-12T20:27:00.941Z,13.15
2023-02-12T20:29:29.153Z,13.88
2023-02-12T20:31:57.072Z,18.52
2023-02-12T20:34:24.917Z,16.40
2023-02-12T20:36:52.716Z,12.50
2023-02-12T20:39:22.288Z,13.62
2023-02-12T20:41:50.924Z,18.42
2023-02-12T20:44:22.353Z,15.38
2023-02-12T20:46:55.812Z,14.85
2023-02-12T20:49:25.324Z,14.00
2023-02-12T20:51:53.814Z,14.43
2023-02-12T20:54:22.172Z,13.70
2023-02-12T20:56:51.572Z,14.32
2023-02-12T20:59:20.096Z,18.00
2023-02-12T21:01:48.559Z,18.55
2023-02-12T21:04:19.856Z,16.70
2023-02-12T21:06:49.593Z,16.52
2023-02-12T21:09:17.567Z,22.27
2023-02-12T21:11:46.904Z,18.98
2023-02-12T21:14:22.478Z,18.27
2023-02-12T21:16:51.292Z,19.00
2023-02-12T21:19:19.630Z,19.33
2023-02-12T21:21:47.893Z,16.33
2023-02-12T21:24:19.331Z,15.20
2023-02-12T21:26:47.152Z,18.95
2023-02-12T21:29:15.117Z,19.65
2023-02-12T21:31:47.254Z,18.25
2023-02-12T21:34:18.471Z,17.77
2023-02-12T21:36:47.732Z,19.55
2023-02-12T21:39:25.545Z,18.83
2023-02-12T21:41:55.878Z,19.12
2023-02-12T21:44:24.940Z,17.50
2023-02-12T21:46:53.467Z,21.25
2023-02-12T21:49:28.920Z,20.92
2023-02-12T21:52:00.434Z,17.50
2023-02-12T21:54:28.331Z,21.62
2023-02-12T21:56:56.554Z,15.25
2023-02-12T21:59:25.884Z,15.73
2023-02-12T22:01:56.828Z,16.77
2023-02-12T22:04:24.805Z,16.27
2023-02-12T22:06:53.625Z,17.77
2023-02-12T22:09:23.315Z,17.52
2023-02-12T22:11:53.172Z,18.58
2023-02-12T22:14:22.361Z,18.75
2023-02-12T22:16:50.761Z,15.13
2023-02-12T22:19:19.067Z,16.58
2023-02-12T22:21:46.904Z,18.12
2023-02-12T22:24:16.908Z,14.10
2023-02-12T22:26:45.921Z,18.05
2023-02-12T22:29:16.386Z,17.20
2023-02-12T22:31:45.893Z,17.02
2023-02-12T22:34:16.481Z,16.80
2023-02-12T22:36:44.884Z,16.60
2023-02-12T22:39:14.353Z,15.75
2023-02-12T22:41:43.482Z,17.02
2023-02-12T22:44:13.585Z,13.75
2023-02-12T22:46:42.678Z,15.55
2023-02-12T22:49:10.995Z,16.40
2023-02-12T22:51:40.585Z,17.77
2023-02-12T22:54:08.719Z,14.77
2023-02-12T22:56:36.439Z,17.90
2023-02-12T22:59:04.363Z,18.90
2023-02-12T23:01:32.747Z,17.08
2023-02-12T23:04:00.755Z,17.75
2023-02-12T23:06:30.932Z,16.17
2023-02-12T23:09:04.946Z,16.17
2023-02-12T23:11:34.401Z,15.50
2023-02-12T23:14:02.320Z,17.30
2023-02-12T23:16:30.187Z,16.02
2023-02-12T23:18:59.701Z,18.67
2023-02-12T23:21:29.291Z,17.33
2023-02-12T23:23:57.772Z,16.65
2023-02-12T23:26:25.813Z,16.48
2023-02-12T23:28:53.556Z,16.58
2023-02-12T23:31:21.723Z,17.95
2023-02-12T23:33:49.736Z,16.10
2023-02-12T23:36:17.610Z,18.25
2023-02-12T23:38:45.494Z,16.85
2023-02-12T23:41:13.265Z,15.57
2023-02-12T23:43:41.110Z,14.80
2023-02-12T23:46:10.364Z,15.07
2023-02-12T23:48:38.619Z,15.68
2023-02-12T23:51:06.606Z,17.10
2023-02-12T23:53:34.300Z,13.48
2023-02-12T23:56:02.258Z,15.32
2023-02-12T23:58:29.998Z,14.93
